Time;durP1;ratioP1;P1;durP2;ratioP2;P2;SDS_P1;SDS_P2;PMS_P1;PMS_P2;Temp;Humidity;BMP_temperature;BMP_pressure;BME280_temperature;BME280_humidity;BME280_pressure;Samples;Min_cycle;Max_cycle;Signal;HPM_P1;HPM_P2
2022/11/14 00:01:49;;;;;;;21.50;19.70;;;2.50;99.90;;;;;;5115658;28;20456;-67
2022/11/14 00:04:16;;;;;;;22.03;20.40;;;2.40;99.90;;;;;;5115621;28;20502;-67
2022/11/14 00:06:43;;;;;;;23.97;21.57;;;2.40;99.90;;;;;;5118441;27;20989;-70
2022/11/14 00:09:11;;;;;;;21.87;20.20;;;2.40;99.90;;;;;;5113069;27;20842;-68
2022/11/14 00:11:38;;;;;;;22.70;20.90;;;2.40;99.90;;;;;;5120635;27;20860;-68
2022/11/14 00:14:05;;;;;;;22.40;20.30;;;2.40;99.90;;;;;;5120931;27;20502;-67
2022/11/14 00:16:32;;;;;;;22.77;20.73;;;2.30;99.90;;;;;;5118951;27;20489;-67
2022/11/14 00:18:59;;;;;;;23.47;21.67;;;2.20;99.90;;;;;;5118748;27;20826;-70
2022/11/14 00:21:26;;;;;;;24.93;22.70;;;2.20;99.90;;;;;;5123275;27;20841;-68
2022/11/14 00:23:53;;;;;;;22.10;20.20;;;2.20;99.90;;;;;;5124487;27;20483;-68
2022/11/14 00:26:21;;;;;;;23.13;20.90;;;2.10;99.90;;;;;;5126298;27;20460;-70
2022/11/14 00:28:48;;;;;;;22.13;20.43;;;2.00;99.90;;;;;;5123235;27;20532;-68
2022/11/14 00:31:15;;;;;;;23.17;21.37;;;2.00;99.90;;;;;;5123528;27;20468;-70
2022/11/14 00:33:42;;;;;;;22.23;20.33;;;2.10;99.90;;;;;;5124287;27;20564;-68
2022/11/14 00:36:09;;;;;;;22.13;19.90;;;2.10;99.90;;;;;;5115843;27;20826;-67
2022/11/14 00:38:36;;;;;;;22.57;20.63;;;2.00;99.90;;;;;;5123082;27;20567;-69
2022/11/14 00:41:03;;;;;;;23.30;21.20;;;1.90;99.90;;;;;;5126625;27;20494;-68
2022/11/14 00:43:31;;;;;;;21.70;19.97;;;1.80;99.90;;;;;;5122409;27;20483;-68
2022/11/14 00:45:59;;;;;;;22.33;20.53;;;1.80;99.90;;;;;;5117641;27;20869;-70
2022/11/14 00:48:26;;;;;;;21.10;19.47;;;1.80;99.90;;;;;;5121162;27;20830;-70
2022/11/14 00:50:53;;;;;;;20.80;19.17;;;1.80;99.90;;;;;;5119096;27;20460;-68
2022/11/14 00:53:20;;;;;;;21.47;19.73;;;1.80;99.90;;;;;;5122609;27;20506;-67
2022/11/14 00:55:47;;;;;;;22.60;20.40;;;1.80;99.90;;;;;;5124900;27;20470;-71
2022/11/14 00:58:14;;;;;;;21.20;19.17;;;1.90;99.90;;;;;;5121109;27;20516;-70
2022/11/14 01:00:42;;;;;;;22.53;20.57;;;1.80;99.90;;;;;;5121550;27;20459;-68
2022/11/14 01:03:10;;;;;;;26.50;21.30;;;1.90;99.90;;;;;;5114700;27;20459;-70
2022/11/14 01:05:41;;;;;;;21.63;19.93;;;1.90;99.90;;;;;;5113758;27;21319;-69
2022/11/14 01:08:08;;;;;;;22.93;20.60;;;1.90;99.90;;;;;;5114799;27;20900;-68
2022/11/14 01:10:34;;;;;;;20.70;19.00;;;2.00;99.90;;;;;;5117925;27;20501;-68
2022/11/14 01:13:01;;;;;;;21.67;19.83;;;1.90;99.90;;;;;;5119389;27;20514;-68
2022/11/14 01:15:29;;;;;;;20.90;19.20;;;1.90;99.90;;;;;;5117242;27;20456;-69
2022/11/14 01:17:58;;;;;;;22.47;20.67;;;1.90;99.90;;;;;;5121343;27;20514;-68
2022/11/14 01:20:25;;;;;;;21.80;19.93;;;2.00;99.90;;;;;;5117457;27;20545;-69
2022/11/14 01:22:53;;;;;;;21.43;19.93;;;2.10;99.90;;;;;;5122919;27;20506;-70
2022/11/14 01:25:19;;;;;;;21.93;19.80;;;2.20;99.90;;;;;;5118392;27;20495;-71
2022/11/14 01:27:46;;;;;;;22.00;19.90;;;2.20;99.90;;;;;;5119612;27;20457;-70
2022/11/14 01:30:14;;;;;;;21.47;19.57;;;2.30;99.90;;;;;;5117454;27;20936;-72
2022/11/14 01:32:41;;;;;;;22.10;20.40;;;2.40;99.90;;;;;;5116829;27;20989;-71
2022/11/14 01:35:11;;;;;;;20.97;18.97;;;2.50;99.90;;;;;;5122871;27;20893;-72
2022/11/14 01:37:38;;;;;;;22.07;20.00;;;2.60;99.90;;;;;;5119481;27;21003;-70
2022/11/14 01:40:06;;;;;;;21.63;19.60;;;2.60;99.90;;;;;;5123132;27;20460;-70
2022/11/14 01:42:34;;;;;;;23.77;20.33;;;2.70;99.90;;;;;;5115945;27;20532;-70
2022/11/14 01:45:01;;;;;;;23.97;20.77;;;2.90;99.90;;;;;;5121121;27;20870;-69
2022/11/14 01:47:32;;;;;;;21.93;20.00;;;2.90;99.90;;;;;;5115726;27;20464;-68
2022/11/14 01:50:01;;;;;;;23.10;20.90;;;2.80;99.90;;;;;;5118937;27;20505;-68
2022/11/14 01:52:34;;;;;;;21.90;19.87;;;2.60;99.90;;;;;;5122261;27;20464;-68
2022/11/14 01:55:04;;;;;;;22.97;21.27;;;2.40;99.90;;;;;;5120278;27;20919;-67
2022/11/14 01:57:36;;;;;;;23.50;21.30;;;2.20;99.90;;;;;;5116279;27;20859;-68
2022/11/14 02:00:07;;;;;;;22.27;20.43;;;2.10;99.90;;;;;;5118854;27;20498;-67
2022/11/14 02:02:35;;;;;;;22.57;20.50;;;2.10;99.90;;;;;;5121078;27;20460;-70
2022/11/14 02:05:06;;;;;;;22.87;20.87;;;2.00;99.90;;;;;;5116116;27;20590;-68
2022/11/14 02:07:37;;;;;;;22.97;21.00;;;1.90;99.90;;;;;;5119832;27;20560;-69
2022/11/14 02:10:07;;;;;;;22.87;21.03;;;1.90;99.90;;;;;;5123084;27;20460;-67
2022/11/14 02:12:34;;;;;;;24.20;21.80;;;1.80;99.90;;;;;;5117390;27;20468;-68
2022/11/14 02:15:02;;;;;;;23.43;21.53;;;1.80;99.90;;;;;;5121024;27;20547;-68
2022/11/14 02:17:29;;;;;;;23.30;21.30;;;1.70;99.90;;;;;;5120971;27;20490;-69
2022/11/14 02:20:03;;;;;;;22.97;21.13;;;1.60;99.90;;;;;;5122426;27;20468;-68
2022/11/14 02:22:30;;;;;;;22.40;20.70;;;1.60;99.90;;;;;;5113095;27;20459;-70
2022/11/14 02:24:57;;;;;;;24.53;21.70;;;1.50;99.90;;;;;;5119499;27;20491;-70
2022/11/14 02:27:25;;;;;;;21.80;19.90;;;1.40;99.90;;;;;;5114107;27;20819;-69
2022/11/14 02:29:52;;;;;;;23.93;21.83;;;1.30;99.90;;;;;;5116958;27;20452;-68
2022/11/14 02:32:19;;;;;;;23.83;21.77;;;1.30;99.90;;;;;;5118696;27;20557;-67
2022/11/14 02:34:46;;;;;;;22.27;20.17;;;1.30;99.90;;;;;;5109913;27;20457;-69
2022/11/14 02:37:14;;;;;;;21.23;19.53;;;1.30;99.90;;;;;;5113844;27;20548;-68
2022/11/14 02:39:41;;;;;;;22.93;20.70;;;1.30;99.90;;;;;;5116620;27;20575;-69
2022/11/14 02:42:08;;;;;;;23.50;21.40;;;1.30;99.90;;;;;;5119093;27;20460;-69
2022/11/14 02:44:35;;;;;;;23.27;21.17;;;1.50;99.90;;;;;;5117069;27;20477;-67
2022/11/14 02:47:02;;;;;;;24.50;21.90;;;1.60;99.90;;;;;;5118801;27;20470;-69
2022/11/14 02:49:29;;;;;;;21.50;19.50;;;1.80;99.90;;;;;;5116594;27;20478;-69
2022/11/14 02:51:56;;;;;;;21.67;19.67;;;2.00;99.90;;;;;;5117648;27;20461;-67
2022/11/14 02:54:24;;;;;;;22.43;20.17;;;2.20;99.90;;;;;;5121498;27;20460;-69
2022/11/14 02:56:51;;;;;;;22.13;19.60;;;2.50;99.90;;;;;;5121869;27;20464;-68
2022/11/14 02:59:18;;;;;;;21.60;19.43;;;2.70;99.90;;;;;;5121151;27;20471;-67
2022/11/14 03:01:45;;;;;;;22.60;20.37;;;2.90;99.90;;;;;;5121565;28;20953;-68
2022/11/14 03:04:12;;;;;;;20.23;18.20;;;3.20;99.90;;;;;;5120556;28;20540;-68
2022/11/14 03:06:39;;;;;;;20.23;18.33;;;3.30;99.90;;;;;;5115926;28;20464;-69
2022/11/14 03:09:07;;;;;;;23.97;19.73;;;3.30;99.90;;;;;;5113606;28;20465;-69
2022/11/14 03:11:35;;;;;;;21.70;19.80;;;3.40;99.90;;;;;;5115486;28;20457;-69
2022/11/14 03:14:02;;;;;;;21.93;19.63;;;3.50;99.90;;;;;;5113573;28;20461;-67
2022/11/14 03:16:29;;;;;;;22.10;19.90;;;3.60;99.90;;;;;;5122737;28;20471;-70
2022/11/14 03:18:56;;;;;;;21.73;19.83;;;3.60;99.90;;;;;;5114618;28;20506;-69
2022/11/14 03:21:24;;;;;;;26.93;19.87;;;3.60;99.90;;;;;;5117560;28;20472;-68
2022/11/14 03:23:50;;;;;;;21.37;19.17;;;3.60;99.90;;;;;;5117245;27;20468;-68
2022/11/14 03:26:17;;;;;;;30.40;22.60;;;3.70;99.90;;;;;;5119998;28;20469;-69
2022/11/14 03:28:46;;;;;;;20.63;18.73;;;3.70;99.90;;;;;;5114537;28;20664;-68
2022/11/14 03:31:14;;;;;;;22.03;19.90;;;3.70;99.90;;;;;;5122628;28;20461;-69
2022/11/14 03:33:40;;;;;;;20.23;18.63;;;3.70;99.90;;;;;;5110864;28;20802;-69
2022/11/14 03:36:09;;;;;;;20.20;18.60;;;3.80;99.90;;;;;;5118817;28;20476;-69
2022/11/14 03:38:36;;;;;;;20.97;18.77;;;3.80;99.90;;;;;;5111969;28;20829;-68
2022/11/14 03:41:04;;;;;;;20.83;18.73;;;3.90;99.90;;;;;;5119002;27;20472;-70
2022/11/14 03:43:32;;;;;;;20.57;18.93;;;3.90;99.90;;;;;;5121659;27;20810;-70
2022/11/14 03:46:01;;;;;;;21.50;19.70;;;4.10;99.90;;;;;;5124753;27;20499;-71
2022/11/14 03:48:29;;;;;;;21.33;19.53;;;4.10;99.90;;;;;;5124792;27;20460;-71
2022/11/14 03:50:56;;;;;;;20.17;18.47;;;4.10;99.90;;;;;;5120352;27;20504;-70
2022/11/14 03:53:24;;;;;;;20.80;19.10;;;4.00;99.90;;;;;;5121636;27;20518;-70
2022/11/14 03:55:52;;;;;;;21.70;19.77;;;4.10;99.90;;;;;;5117796;27;20798;-71
2022/11/14 03:58:19;;;;;;;21.40;19.60;;;4.10;99.90;;;;;;5122614;27;20945;-70
2022/11/14 04:00:46;;;;;;;22.47;20.40;;;4.10;99.90;;;;;;5121766;27;20559;-70
2022/11/14 04:03:14;;;;;;;20.87;18.90;;;4.20;99.90;;;;;;5125796;27;20460;-70
2022/11/14 04:05:44;;;;;;;20.00;18.57;;;4.30;99.90;;;;;;5115035;27;20534;-69
2022/11/14 04:08:12;;;;;;;21.20;19.50;;;4.40;99.90;;;;;;5114717;27;20587;-69
2022/11/14 04:10:40;;;;;;;21.37;19.47;;;4.50;99.90;;;;;;5120582;27;20469;-71
2022/11/14 04:13:07;;;;;;;21.13;19.53;;;4.60;99.90;;;;;;5126970;27;20543;-71
2022/11/14 04:15:33;;;;;;;20.07;18.57;;;4.70;99.90;;;;;;5122780;27;20462;-71
2022/11/14 04:18:00;;;;;;;21.80;19.87;;;4.80;99.90;;;;;;5115853;27;20456;-71
2022/11/14 04:20:28;;;;;;;22.80;19.40;;;4.90;99.90;;;;;;5121550;27;20470;-69
2022/11/14 04:22:55;;;;;;;22.10;20.23;;;5.00;99.90;;;;;;5124959;27;20464;-71
2022/11/14 04:25:22;;;;;;;23.93;21.90;;;5.00;99.90;;;;;;5121140;27;20491;-72
2022/11/14 04:27:49;;;;;;;21.93;19.83;;;5.00;99.90;;;;;;5113936;27;20454;-71
2022/11/14 04:30:16;;;;;;;23.73;21.47;;;5.00;99.90;;;;;;5119357;27;20452;-71
2022/11/14 04:32:47;;;;;;;22.97;21.27;;;4.90;99.90;;;;;;5116381;27;20488;-71
2022/11/14 04:35:13;;;;;;;23.90;21.93;;;4.90;99.90;;;;;;5121850;27;20464;-70
2022/11/14 04:37:42;;;;;;;22.93;20.83;;;4.90;99.90;;;;;;5129219;27;20817;-70
2022/11/14 04:40:09;;;;;;;22.43;20.70;;;5.00;99.90;;;;;;5112668;28;20822;-71
2022/11/14 04:45:58;;;;;;;23.87;21.27;;;5.20;99.90;;;;;;5112864;28;20978;-71
2022/11/14 04:48:25;;;;;;;23.47;21.33;;;5.30;99.90;;;;;;5112754;28;20567;-69
2022/11/14 04:50:52;;;;;;;25.30;21.70;;;5.20;99.90;;;;;;5112584;28;20521;-70
2022/11/14 04:53:20;;;;;;;22.77;20.83;;;5.20;99.90;;;;;;5112339;28;20453;-70
2022/11/14 04:55:47;;;;;;;24.17;21.67;;;5.20;99.90;;;;;;5112958;28;20467;-70
2022/11/14 04:58:14;;;;;;;23.93;22.03;;;5.20;99.90;;;;;;5113474;28;20518;-71
2022/11/14 05:00:40;;;;;;;23.27;21.47;;;5.20;99.90;;;;;;5112004;28;20555;-71
2022/11/14 05:03:08;;;;;;;23.43;21.40;;;5.20;99.90;;;;;;5112036;28;20457;-70
2022/11/14 05:05:35;;;;;;;23.00;21.07;;;5.10;99.90;;;;;;5111156;28;20501;-70
2022/11/14 05:08:02;;;;;;;23.90;21.83;;;5.10;99.90;;;;;;5111943;28;20457;-70
2022/11/14 05:10:30;;;;;;;23.40;21.40;;;5.10;99.90;;;;;;5112274;28;20504;-70
2022/11/14 05:16:18;;;;;;;23.83;21.47;;;5.10;99.90;;;;;;5109253;28;20501;-71
2022/11/14 05:18:45;;;;;;;24.77;22.37;;;5.00;99.90;;;;;;5110480;28;20508;-71
2022/11/14 05:21:14;;;;;;;26.53;23.20;;;5.00;99.90;;;;;;5111943;28;20890;-70
2022/11/14 05:23:41;;;;;;;25.17;22.80;;;4.90;99.90;;;;;;5111616;28;20462;-70
2022/11/14 05:26:11;;;;;;;25.40;23.17;;;4.90;99.90;;;;;;5112180;28;20844;-70
2022/11/14 05:28:38;;;;;;;28.60;23.50;;;4.80;99.90;;;;;;5111834;28;20458;-69
2022/11/14 05:31:06;;;;;;;25.50;23.20;;;4.80;99.90;;;;;;5111287;28;20473;-71
2022/11/14 05:33:34;;;;;;;24.17;21.97;;;4.80;99.90;;;;;;5111128;28;20815;-71
2022/11/14 05:36:04;;;;;;;24.53;22.33;;;4.70;99.90;;;;;;5110208;28;20457;-71
2022/11/14 05:38:31;;;;;;;24.70;22.40;;;4.70;99.90;;;;;;5111307;27;20545;-71
2022/11/14 05:40:58;;;;;;;25.83;23.43;;;4.70;99.90;;;;;;5117921;27;21163;-72
2022/11/14 05:43:29;;;;;;;24.97;22.57;;;4.70;99.90;;;;;;5123264;27;20460;-71
2022/11/14 05:45:59;;;;;;;24.67;22.33;;;4.70;99.90;;;;;;5113125;27;20497;-70
2022/11/14 05:48:26;;;;;;;25.50;22.97;;;4.60;99.90;;;;;;5113402;27;20510;-71
2022/11/14 05:50:55;;;;;;;25.13;22.73;;;4.70;99.90;;;;;;5116219;27;20468;-71
2022/11/14 05:53:22;;;;;;;25.00;22.90;;;4.70;99.90;;;;;;5120874;27;20878;-70
2022/11/14 05:55:48;;;;;;;24.73;22.53;;;4.70;99.90;;;;;;5123698;27;20463;-71
2022/11/14 05:58:16;;;;;;;25.07;22.67;;;4.60;99.90;;;;;;5116935;27;20538;-71
2022/11/14 06:00:44;;;;;;;25.00;22.60;;;4.60;99.90;;;;;;5117706;27;20514;-72
2022/11/14 06:03:13;;;;;;;24.30;22.10;;;4.50;99.90;;;;;;5122256;27;20813;-70
2022/11/14 06:05:40;;;;;;;24.50;22.30;;;4.50;99.90;;;;;;5121003;27;20877;-69
2022/11/14 06:08:07;;;;;;;24.77;22.50;;;4.40;99.90;;;;;;5118268;27;20468;-70
2022/11/14 06:10:35;;;;;;;24.33;21.97;;;4.40;99.90;;;;;;5122875;27;20487;-70
2022/11/14 06:13:03;;;;;;;26.97;22.50;;;4.40;99.90;;;;;;5111179;27;20449;-70
2022/11/14 06:15:29;;;;;;;25.23;22.90;;;4.40;99.90;;;;;;5115811;27;20832;-71
2022/11/14 06:17:58;;;;;;;24.37;21.90;;;4.40;99.90;;;;;;5116477;27;20469;-70
2022/11/14 06:20:25;;;;;;;24.70;22.40;;;4.40;99.90;;;;;;5120013;27;20801;-70
2022/11/14 06:22:54;;;;;;;25.80;23.57;;;4.40;99.90;;;;;;5121063;27;20833;-70
2022/11/14 06:25:22;;;;;;;32.33;23.30;;;4.30;99.90;;;;;;5116884;27;20571;-71
2022/11/14 06:27:48;;;;;;;25.63;23.10;;;4.40;99.90;;;;;;5116875;27;20457;-69
2022/11/14 06:30:15;;;;;;;25.77;22.87;;;4.40;99.90;;;;;;5109830;27;20600;-71
2022/11/14 06:32:42;;;;;;;24.60;22.30;;;4.50;99.90;;;;;;5114626;27;20830;-70
2022/11/14 06:35:12;;;;;;;24.90;22.77;;;4.50;99.90;;;;;;5113165;27;20967;-70
2022/11/14 06:37:38;;;;;;;25.13;22.67;;;4.50;99.90;;;;;;5122309;27;20543;-69
2022/11/14 06:40:06;;;;;;;24.47;22.30;;;4.50;99.90;;;;;;5117149;27;20502;-70
2022/11/14 06:42:34;;;;;;;27.27;24.77;;;4.40;99.90;;;;;;5115073;27;20462;-70
2022/11/14 06:45:01;;;;;;;27.10;24.37;;;4.40;99.90;;;;;;5121817;27;20498;-70
2022/11/14 06:47:28;;;;;;;25.33;23.20;;;4.40;99.90;;;;;;5121078;27;20532;-70
2022/11/14 06:49:55;;;;;;;25.20;22.90;;;4.40;99.90;;;;;;5117599;27;20621;-69
2022/11/14 06:52:25;;;;;;;26.00;22.87;;;4.50;99.90;;;;;;5115692;27;20458;-70
2022/11/14 06:54:52;;;;;;;27.77;24.90;;;4.40;99.90;;;;;;5121939;27;20466;-70
2022/11/14 06:57:20;;;;;;;25.50;22.80;;;4.40;99.90;;;;;;5118430;27;20769;-69
2022/11/14 06:59:46;;;;;;;29.10;22.47;;;4.50;99.90;;;;;;5123577;27;20634;-70
2022/11/14 07:02:14;;;;;;;25.93;23.33;;;4.40;99.90;;;;;;5117193;27;20453;-69
2022/11/14 07:04:41;;;;;;;26.10;23.53;;;4.40;99.90;;;;;;5119991;28;20541;-69
2022/11/14 07:07:08;;;;;;;27.50;24.70;;;4.50;99.90;;;;;;5113667;28;20998;-71
2022/11/14 07:09:36;;;;;;;26.70;23.83;;;4.40;99.90;;;;;;5115942;28;20553;-69
2022/11/14 07:12:03;;;;;;;28.27;25.17;;;4.50;99.90;;;;;;5113106;28;20456;-71
2022/11/14 07:14:29;;;;;;;28.33;25.20;;;4.40;99.90;;;;;;5113291;28;20464;-69
2022/11/14 07:16:57;;;;;;;25.20;22.73;;;4.50;99.90;;;;;;5119467;27;20983;-69
2022/11/14 07:19:24;;;;;;;28.33;25.30;;;4.50;99.90;;;;;;5115810;27;20530;-67
2022/11/14 07:21:51;;;;;;;27.70;24.80;;;4.60;99.90;;;;;;5117646;27;20559;-68
2022/11/14 07:24:18;;;;;;;27.63;22.50;;;4.60;99.90;;;;;;5118029;27;20473;-69
2022/11/14 07:26:47;;;;;;;27.83;24.03;;;4.60;99.90;;;;;;5118986;27;20516;-67
2022/11/14 07:29:13;;;;;;;32.13;24.23;;;4.70;99.90;;;;;;5116125;27;20458;-68
2022/11/14 07:31:41;;;;;;;28.13;24.67;;;4.70;99.90;;;;;;5120390;27;20460;-68
2022/11/14 07:34:10;;;;;;;32.13;25.23;;;4.70;99.90;;;;;;5118701;27;20952;-67
2022/11/14 07:36:36;;;;;;;38.37;25.07;;;4.80;99.90;;;;;;5114063;27;20552;-67
2022/11/14 07:39:03;;;;;;;28.90;24.70;;;4.80;99.90;;;;;;5115622;27;20477;-68
2022/11/14 07:41:30;;;;;;;31.00;24.80;;;4.80;99.90;;;;;;5119212;27;20513;-69
2022/11/14 07:43:59;;;;;;;30.13;25.70;;;4.80;99.90;;;;;;5118025;27;20464;-67
2022/11/14 07:46:25;;;;;;;33.33;27.63;;;4.90;99.90;;;;;;5117029;27;20500;-68
2022/11/14 07:48:52;;;;;;;28.93;24.70;;;4.90;99.90;;;;;;5113158;27;20449;-68
2022/11/14 07:51:20;;;;;;;32.53;27.60;;;4.90;99.90;;;;;;5118753;27;20513;-67
2022/11/14 07:53:48;;;;;;;29.50;25.40;;;5.00;99.90;;;;;;5115476;27;20475;-68
2022/11/14 07:56:15;;;;;;;38.07;28.93;;;5.00;99.90;;;;;;5111269;27;20456;-69
2022/11/14 07:58:42;;;;;;;36.50;28.40;;;5.00;99.90;;;;;;5122925;27;20519;-69
2022/11/14 08:01:12;;;;;;;34.30;29.30;;;5.10;99.90;;;;;;5117485;27;20859;-69
2022/11/14 08:03:40;;;;;;;37.30;30.03;;;5.10;99.90;;;;;;5114689;27;20589;-67
2022/11/14 08:06:09;;;;;;;37.57;29.47;;;5.20;99.90;;;;;;5111044;27;20495;-68
2022/11/14 08:08:36;;;;;;;34.70;29.47;;;5.20;99.90;;;;;;5117661;27;20462;-67
2022/11/14 08:11:04;;;;;;;33.80;28.57;;;5.20;99.90;;;;;;5112107;27;20449;-68
2022/11/14 08:13:32;;;;;;;44.97;31.97;;;5.30;99.90;;;;;;5111543;27;20467;-68
2022/11/14 08:16:03;;;;;;;41.53;30.50;;;5.40;99.90;;;;;;5113560;27;20563;-69
2022/11/14 08:18:31;;;;;;;37.60;29.50;;;5.50;99.90;;;;;;5121485;27;20461;-67
2022/11/14 08:20:58;;;;;;;46.13;29.87;;;5.60;99.90;;;;;;5117738;27;20461;-69
2022/11/14 08:23:25;;;;;;;46.73;31.13;;;5.80;99.90;;;;;;5119995;27;20526;-69
2022/11/14 08:25:52;;;;;;;44.23;32.00;;;5.90;99.90;;;;;;5118820;27;20480;-67
2022/11/14 08:28:18;;;;;;;36.60;30.27;;;6.00;99.90;;;;;;5120409;27;20464;-69
2022/11/14 08:30:45;;;;;;;49.00;33.87;;;6.20;99.90;;;;;;5116911;27;20498;-69
2022/11/14 08:33:12;;;;;;;44.17;31.07;;;6.30;99.90;;;;;;5119318;27;20460;-69
2022/11/14 08:35:40;;;;;;;53.90;32.73;;;6.30;99.90;;;;;;5123525;27;20948;-69
2022/11/14 08:38:07;;;;;;;43.77;31.10;;;6.40;99.90;;;;;;5116682;27;20487;-68
2022/11/14 08:40:34;;;;;;;49.17;32.43;;;6.40;99.90;;;;;;5116851;27;20972;-68
2022/11/14 08:43:01;;;;;;;41.93;30.80;;;6.50;99.90;;;;;;5115982;27;20468;-69
2022/11/14 08:45:29;;;;;;;48.97;29.83;;;6.50;99.90;;;;;;5120407;27;20555;-67
2022/11/14 08:47:56;;;;;;;55.80;31.77;;;6.70;99.90;;;;;;5113229;27;20460;-68
2022/11/14 08:50:23;;;;;;;45.57;28.93;;;6.80;99.90;;;;;;5114167;27;20471;-67
2022/11/14 08:52:53;;;;;;;53.27;29.63;;;6.90;99.90;;;;;;5110906;27;20457;-68
2022/11/14 08:55:20;;;;;;;43.73;29.10;;;6.90;99.90;;;;;;5114599;27;20463;-68
2022/11/14 08:57:48;;;;;;;38.20;30.30;;;6.90;99.90;;;;;;5112310;27;20466;-69
2022/11/14 09:00:15;;;;;;;43.00;29.47;;;7.00;99.90;;;;;;5121409;27;20455;-69
2022/11/14 09:02:42;;;;;;;47.13;28.50;;;7.20;99.90;;;;;;5111875;27;20461;-69
2022/11/14 09:05:09;;;;;;;46.70;29.30;;;7.30;99.90;;;;;;5116364;27;20484;-68
2022/11/14 09:07:36;;;;;;;46.53;28.40;;;7.40;99.90;;;;;;5115651;27;20489;-68
2022/11/14 09:10:06;;;;;;;40.23;28.67;;;7.50;99.90;;;;;;5115841;27;20461;-69
2022/11/14 09:12:33;;;;;;;44.23;29.23;;;7.70;99.90;;;;;;5119799;27;20798;-68
2022/11/14 09:15:00;;;;;;;46.53;28.00;;;7.70;99.90;;;;;;5120966;27;20615;-69
2022/11/14 09:17:28;;;;;;;39.43;28.47;;;8.00;99.90;;;;;;5116450;27;20474;-69
2022/11/14 09:19:55;;;;;;;39.50;28.77;;;8.10;99.90;;;;;;5118900;27;20872;-69
2022/11/14 09:22:22;;;;;;;38.53;29.23;;;8.10;99.90;;;;;;5109682;27;22716;-69
2022/11/14 09:24:50;;;;;;;37.53;27.50;;;8.20;99.90;;;;;;5117424;27;20466;-68
2022/11/14 09:27:18;;;;;;;36.37;28.80;;;8.20;99.90;;;;;;5118991;27;20494;-69
2022/11/14 09:29:46;;;;;;;34.40;26.40;;;8.20;99.90;;;;;;5118345;27;20460;-68
2022/11/14 09:32:13;;;;;;;37.83;28.70;;;8.00;99.90;;;;;;5113822;27;20826;-69
2022/11/14 09:34:42;;;;;;;43.70;30.27;;;8.00;99.90;;;;;;5112586;27;20456;-69
2022/11/14 09:37:09;;;;;;;36.77;30.50;;;8.00;99.90;;;;;;5123930;27;20494;-68
2022/11/14 09:39:39;;;;;;;37.37;29.87;;;8.00;99.90;;;;;;5120355;27;20472;-69
2022/11/14 09:42:26;;;;;;;36.70;30.07;;;7.80;99.90;;;;;;5120550;27;20450;-70
2022/11/14 09:44:57;;;;;;;38.23;30.00;;;7.90;99.90;;;;;;5117290;27;20460;-68
2022/11/14 09:47:28;;;;;;;34.60;27.87;;;8.00;99.90;;;;;;5114264;27;20487;-69
2022/11/14 09:49:59;;;;;;;40.17;26.97;;;8.00;99.90;;;;;;5120160;27;20484;-70
2022/11/14 09:52:30;;;;;;;32.87;27.67;;;8.10;99.90;;;;;;5122581;27;20460;-70
2022/11/14 09:55:01;;;;;;;36.60;29.57;;;8.20;99.90;;;;;;5118046;27;20456;-70
2022/11/14 09:57:30;;;;;;;38.07;28.97;;;8.50;99.90;;;;;;5113453;27;20463;-70
2022/11/14 09:59:57;;;;;;;30.27;26.37;;;8.60;99.90;;;;;;5116019;27;20472;-70
2022/11/14 10:02:40;;;;;;;39.60;29.83;;;8.70;99.90;;;;;;5114942;27;20452;-69
2022/11/14 10:05:30;;;;;;;29.93;26.73;;;8.50;99.90;;;;;;5124122;27;20818;-69
2022/11/14 10:08:16;;;;;;;35.77;28.50;;;8.40;99.90;;;;;;5118090;27;21029;-71
2022/11/14 10:14:15;;;;;;;32.67;28.90;;;8.50;99.90;;;;;;5121909;27;20459;-70
2022/11/14 10:16:51;;;;;;;33.30;27.33;;;8.60;99.90;;;;;;5108507;27;20461;-70
2022/11/14 10:19:26;;;;;;;33.23;27.27;;;8.60;99.90;;;;;;5111995;27;20464;-70
2022/11/14 10:22:11;;;;;;;29.87;26.77;;;8.50;99.90;;;;;;5114269;27;20472;-70
2022/11/14 10:24:51;;;;;;;43.90;26.93;;;8.40;99.90;;;;;;5118015;27;20468;-70
2022/11/14 10:27:20;;;;;;;34.77;27.53;;;8.40;99.90;;;;;;5116967;27;20818;-70
2022/11/14 10:30:05;;;;;;;33.77;28.47;;;8.50;99.90;;;;;;5119153;27;20482;-70
2022/11/14 10:32:50;;;;;;;34.00;28.30;;;8.60;99.90;;;;;;5114623;27;20975;-69
2022/11/14 10:35:20;;;;;;;28.87;25.77;;;8.70;99.90;;;;;;5118211;27;20853;-69
2022/11/14 10:37:58;;;;;;;38.33;27.60;;;8.80;99.90;;;;;;5113070;27;20949;-68
2022/11/14 10:40:26;;;;;;;31.53;25.80;;;8.80;99.90;;;;;;5115154;27;20984;-70
2022/11/14 10:42:58;;;;;;;29.13;25.90;;;8.90;99.90;;;;;;5116311;27;20471;-70
2022/11/14 10:45:31;;;;;;;29.47;24.67;;;9.00;99.90;;;;;;5117194;27;20464;-69
2022/11/14 10:48:03;;;;;;;28.07;25.17;;;9.00;99.90;;;;;;5117298;27;20517;-68
2022/11/14 10:50:37;;;;;;;27.50;24.70;;;9.10;99.90;;;;;;5112846;27;20979;-70
2022/11/14 10:53:14;;;;;;;29.93;24.67;;;9.20;99.90;;;;;;5122130;27;20451;-69
2022/11/14 10:55:41;;;;;;;26.13;23.63;;;9.30;99.90;;;;;;5120839;27;20466;-69
2022/11/14 10:58:12;;;;;;;29.13;23.50;;;9.40;99.90;;;;;;5119800;27;20488;-70
2022/11/14 11:00:40;;;;;;;25.00;22.30;;;9.50;99.90;;;;;;5115529;27;21299;-71
2022/11/14 11:03:07;;;;;;;23.60;21.30;;;9.60;99.90;;;;;;5111931;28;20524;-69
2022/11/14 11:05:45;;;;;;;24.87;22.00;;;9.60;99.90;;;;;;5116010;28;22003;-71
2022/11/14 11:13:52;;;;;;;22.13;20.17;;;9.60;99.90;;;;;;5115047;28;20447;-71
2022/11/14 11:16:22;;;;;;;23.20;21.07;;;9.60;99.90;;;;;;5113589;27;20479;-72
2022/11/14 11:18:50;;;;;;;24.07;21.13;;;9.50;99.90;;;;;;5118106;28;20532;-70
2022/11/14 11:21:19;;;;;;;26.10;20.80;;;9.50;99.90;;;;;;5114137;27;20463;-69
2022/11/14 11:23:51;;;;;;;26.97;20.63;;;9.80;99.90;;;;;;5112901;27;20479;-69
2022/11/14 11:26:21;;;;;;;26.63;21.47;;;9.90;99.90;;;;;;5114145;27;21031;-69
2022/11/14 11:29:04;;;;;;;23.13;21.13;;;10.00;99.90;;;;;;5115139;27;20735;-69
2022/11/14 11:31:50;;;;;;;27.50;21.97;;;10.10;99.90;;;;;;5111326;27;20488;-69
2022/11/14 11:34:23;;;;;;;22.40;20.23;;;10.10;99.90;;;;;;5109718;28;20508;-69
2022/11/14 11:36:55;;;;;;;23.23;20.93;;;10.20;99.90;;;;;;5114020;27;20504;-69
2022/11/14 11:39:26;;;;;;;21.37;19.27;;;10.10;99.90;;;;;;5111054;27;20475;-69
2022/11/14 11:41:58;;;;;;;22.03;19.70;;;10.10;99.90;;;;;;5109096;27;20552;-69
2022/11/14 11:44:34;;;;;;;21.10;19.13;;;10.00;99.90;;;;;;5116829;28;20636;-69
2022/11/14 11:47:08;;;;;;;20.83;19.03;;;10.00;99.90;;;;;;5116002;27;20511;-69
2022/11/14 11:49:44;;;;;;;20.30;18.53;;;10.20;99.90;;;;;;5117519;28;20460;-69
2022/11/14 11:52:17;;;;;;;19.93;18.13;;;10.50;99.90;;;;;;5113990;27;20474;-69
2022/11/14 11:54:58;;;;;;;20.73;18.93;;;10.60;99.90;;;;;;5114416;28;20460;-70
2022/11/14 11:57:31;;;;;;;21.03;19.13;;;10.80;99.90;;;;;;5110282;27;20850;-68
2022/11/14 12:00:05;;;;;;;20.47;18.83;;;10.90;99.90;;;;;;5111814;28;20461;-68
2022/11/14 12:02:36;;;;;;;20.80;18.97;;;10.90;99.90;;;;;;5113167;27;20464;-68
2022/11/14 12:05:05;;;;;;;21.17;19.30;;;11.40;99.90;;;;;;5117222;27;20472;-68
2022/11/14 12:07:40;;;;;;;20.03;18.43;;;11.80;99.90;;;;;;5115129;27;20486;-70
2022/11/14 12:10:15;;;;;;;20.43;19.00;;;11.90;99.90;;;;;;5116541;27;20459;-68
2022/11/14 12:13:12;;;;;;;20.17;18.60;;;11.70;99.90;;;;;;5118354;27;20460;-68
2022/11/14 12:15:47;;;;;;;19.73;17.80;;;11.60;99.90;;;;;;5064507;27;20512;-69
2022/11/14 12:18:37;;;;;;;19.20;17.73;;;11.50;99.90;;;;;;5115255;27;20460;-68
2022/11/14 12:21:23;;;;;;;19.17;17.77;;;11.10;99.90;;;;;;5121762;27;20517;-70
2022/11/14 12:24:24;;;;;;;20.43;18.97;;;10.90;99.90;;;;;;5120198;27;20552;-68
2022/11/14 12:27:23;;;;;;;19.10;17.50;;;10.50;99.90;;;;;;5097648;27;21022;-68
2022/11/14 12:30:03;;;;;;;20.20;18.80;;;10.40;99.90;;;;;;5079501;27;20913;-72
2022/11/14 12:32:34;;;;;;;19.23;17.83;;;10.40;99.90;;;;;;5119410;27;20471;-71
2022/11/14 12:35:05;;;;;;;19.53;18.00;;;10.50;99.90;;;;;;5119245;27;20467;-70
2022/11/14 12:37:35;;;;;;;19.23;17.80;;;10.70;99.90;;;;;;5116691;27;20465;-72
2022/11/14 12:40:04;;;;;;;19.67;18.33;;;10.90;99.90;;;;;;5118176;27;20480;-73
2022/11/14 12:42:32;;;;;;;18.10;16.90;;;10.90;99.90;;;;;;5116498;27;20502;-70
2022/11/14 12:44:59;;;;;;;19.50;18.20;;;11.30;99.90;;;;;;5117729;27;20957;-70
2022/11/14 12:47:27;;;;;;;20.23;18.57;;;11.60;99.90;;;;;;5117068;27;21105;-70
2022/11/14 12:50:06;;;;;;;19.97;18.67;;;11.80;99.90;;;;;;5119301;27;20463;-74
2022/11/14 12:52:44;;;;;;;20.17;18.67;;;11.60;99.90;;;;;;5122205;27;20977;-70
2022/11/14 12:55:44;;;;;;;21.13;19.33;;;11.50;99.90;;;;;;5122939;27;20448;-73
2022/11/14 12:58:14;;;;;;;21.07;19.30;;;11.50;99.90;;;;;;5114073;27;20562;-70
2022/11/14 13:01:02;;;;;;;21.23;19.20;;;11.40;99.90;;;;;;5116975;27;20864;-71
2022/11/14 13:03:46;;;;;;;20.80;19.30;;;11.20;99.90;;;;;;5114344;27;20464;-71